createdAt,value
2023-01-01T00:00:35.263Z,76509.25
2023-01-01T00:07:37.428Z,76515.38
2023-01-01T00:14:39.753Z,76505.16
2023-01-01T00:21:41.912Z,76497.00
2023-01-01T00:28:44.985Z,76501.09
2023-01-01T00:35:47.131Z,76501.09
2023-01-01T00:42:49.223Z,76505.16
2023-01-01T00:49:51.254Z,76484.72
2023-01-01T00:56:53.360Z,76494.94
2023-01-01T01:03:55.430Z,76488.81
2023-01-01T01:11:10.863Z,76499.03
2023-01-01T01:18:12.866Z,78594.41
2023-01-01T01:25:14.864Z,76521.53
2023-01-01T01:32:18.212Z,76501.09
2023-01-01T01:39:20.360Z,76519.47
2023-01-01T01:46:33.468Z,76499.03
2023-01-01T01:53:38.445Z,76503.13
2023-01-01T02:00:40.548Z,76505.16
2023-01-01T02:07:43.020Z,76513.34
2023-01-01T02:14:45.220Z,76511.31
2023-01-01T02:22:00.539Z,76503.13
2023-01-01T02:29:06.348Z,76505.16
2023-01-01T02:36:09.226Z,76486.78
2023-01-01T02:43:11.274Z,76494.94
2023-01-01T02:50:25.896Z,76490.88
2023-01-01T02:57:43.561Z,76480.66
2023-01-01T03:04:45.512Z,76472.47
2023-01-01T03:11:47.567Z,76476.56
2023-01-01T03:19:11.432Z,76482.69
2023-01-01T03:26:14.410Z,76472.47
2023-01-01T03:33:24.131Z,76464.28
2023-01-01T03:40:26.959Z,76460.22
2023-01-01T03:47:30.084Z,76458.16
2023-01-01T03:54:58.754Z,76462.25
2023-01-01T04:02:02.181Z,76458.16
2023-01-01T04:09:05.337Z,76462.25
2023-01-01T04:16:08.021Z,76486.78
2023-01-01T04:23:10.144Z,76497.00
2023-01-01T04:30:14.076Z,76492.91
2023-01-01T04:37:16.423Z,76505.16
2023-01-01T04:44:19.069Z,76497.00
2023-01-01T04:51:21.697Z,76474.50
2023-01-01T04:58:24.323Z,76486.78
2023-01-01T05:05:26.284Z,76497.00
2023-01-01T05:12:30.166Z,76497.00
2023-01-01T05:19:32.178Z,76509.25
2023-01-01T05:26:39.629Z,76511.31
2023-01-01T05:33:42.248Z,76517.44
2023-01-01T05:40:44.237Z,76525.59
2023-01-01T05:47:46.272Z,76537.88
2023-01-01T05:54:48.316Z,76537.88
2023-01-01T06:01:50.409Z,76550.13
2023-01-01T06:09:00.416Z,76560.34
2023-01-01T06:16:03.343Z,76558.31
2023-01-01T06:23:05.381Z,76566.47
2023-01-01T06:30:08.883Z,76584.88
2023-01-01T06:37:11.079Z,76595.09
2023-01-01T06:44:13.249Z,76591.00
2023-01-01T06:51:18.202Z,76599.19
2023-01-01T06:58:20.253Z,76607.34
2023-01-01T07:05:22.220Z,76617.56
2023-01-01T07:12:24.256Z,76619.63
2023-01-01T07:19:26.224Z,76627.78
2023-01-01T07:26:29.833Z,76617.56
2023-01-01T07:33:31.762Z,76635.97
2023-01-01T07:40:34.269Z,76650.28
2023-01-01T07:47:36.492Z,76633.94
2023-01-01T07:54:38.500Z,76633.94
2023-01-01T08:01:40.588Z,76621.66
2023-01-01T08:08:42.706Z,76615.53
2023-01-01T08:15:44.824Z,76584.88
2023-01-01T08:22:46.888Z,76576.69
2023-01-01T08:29:48.962Z,76570.56
2023-01-01T08:36:51.846Z,76550.13
2023-01-01T08:43:53.975Z,76535.81
2023-01-01T08:50:57.546Z,76525.59
2023-01-01T08:57:59.572Z,76507.22
2023-01-01T09:05:01.513Z,76505.16
2023-01-01T09:12:06.352Z,76488.81
2023-01-01T09:19:08.435Z,76470.44
2023-01-01T09:26:11.108Z,76468.38
2023-01-01T09:33:13.221Z,76447.94
2023-01-01T09:55:00.659Z,76447.94
2023-01-01T10:02:23.883Z,76429.56
2023-01-01T10:09:34.915Z,76396.84
2023-01-01T10:16:40.960Z,76411.16
2023-01-01T10:23:50.681Z,76415.25
2023-01-01T11:07:34.452Z,76450.00
2023-01-01T11:14:42.734Z,76433.63
2023-01-01T11:21:47.718Z,76396.84
2023-01-01T11:29:25.318Z,76362.13
2023-01-01T11:36:35.046Z,76349.84
2023-01-01T11:43:44.152Z,76362.13
2023-01-01T11:50:57.751Z,76360.06
2023-01-01T11:58:17.552Z,76366.19
2023-01-01T12:05:25.350Z,76353.94
2023-01-01T12:12:36.209Z,76362.13
2023-01-01T12:20:14.791Z,76353.94
2023-01-01T12:27:39.903Z,76339.63
2023-01-01T12:34:44.658Z,76333.50
2023-01-01T12:42:01.138Z,76343.72
2023-01-01T12:49:36.252Z,76339.63
2023-01-01T12:56:47.312Z,76351.91
2023-01-01T13:03:54.433Z,76351.91
2023-01-01T13:10:58.280Z,76374.38
2023-01-01T13:18:00.492Z,76382.56
2023-01-01T13:25:11.639Z,76380.50
2023-01-01T13:32:14.734Z,76398.91
2023-01-01T13:40:05.013Z,76390.72
2023-01-01T13:47:09.433Z,76409.13
2023-01-01T13:54:35.669Z,76417.28
2023-01-01T14:01:45.405Z,76427.50
2023-01-01T14:09:01.728Z,76439.78
2023-01-01T14:16:08.079Z,76472.47
2023-01-01T14:23:13.474Z,76484.72
2023-01-01T14:30:17.515Z,76497.00
2023-01-01T14:37:24.816Z,76482.69
2023-01-01T14:44:34.111Z,76484.72
2023-01-01T14:51:40.902Z,76484.72
2023-01-01T14:58:46.074Z,76509.25
2023-01-01T15:06:00.161Z,76531.75
2023-01-01T15:13:06.110Z,76544.00
2023-01-01T15:20:21.876Z,76556.25
2023-01-01T15:27:32.184Z,76580.78
2023-01-01T15:34:49.257Z,76599.19
2023-01-01T15:41:52.801Z,76607.34
2023-01-01T15:48:54.840Z,76619.63
2023-01-01T15:55:59.530Z,76627.78
2023-01-01T16:03:11.329Z,76640.06
2023-01-01T16:10:17.886Z,76656.41
2023-01-01T16:17:21.179Z,76646.19
2023-01-01T16:24:23.336Z,76664.59
2023-01-01T16:31:28.938Z,76685.03
2023-01-01T16:38:31.063Z,76707.50
2023-01-01T16:45:33.131Z,76713.63
2023-01-01T16:52:38.323Z,76721.81
2023-01-01T16:59:43.168Z,76732.03
2023-01-01T17:06:45.218Z,76754.50
2023-01-01T17:13:48.468Z,76779.03
2023-01-01T17:20:50.645Z,76795.41
2023-01-01T17:27:52.904Z,76811.75
2023-01-01T17:34:55.223Z,76838.31
2023-01-01T17:41:58.657Z,76846.50
2023-01-01T17:49:02.441Z,76866.94
2023-01-01T17:56:05.247Z,76877.16
2023-01-01T18:03:11.021Z,76885.31
2023-01-01T18:10:13.736Z,76903.72
2023-01-01T18:17:16.147Z,76930.28
2023-01-01T18:24:18.529Z,76944.59
2023-01-01T18:31:21.200Z,76954.81
2023-01-01T18:38:24.041Z,76971.16
2023-01-01T18:45:26.775Z,76983.44
2023-01-01T18:52:31.451Z,77005.91
2023-01-01T18:59:33.884Z,77032.50
2023-01-01T19:06:36.249Z,77048.84
2023-01-01T19:13:42.954Z,77075.41
2023-01-01T19:20:54.556Z,77083.59
2023-01-01T19:27:57.060Z,77106.06
2023-01-01T19:35:02.855Z,77128.56
2023-01-01T19:42:07.285Z,77146.97
2023-01-01T19:49:10.077Z,77159.22
2023-01-01T19:56:16.442Z,77163.31
2023-01-01T20:10:44.369Z,77191.94
2023-01-01T20:17:48.517Z,77200.09
2023-01-01T20:24:51.548Z,77214.41
2023-01-01T20:31:54.734Z,77230.75
2023-01-01T20:38:57.505Z,77253.25
2023-01-01T20:46:00.446Z,77265.50
2023-01-01T20:53:04.094Z,77288.00
2023-01-01T21:00:07.783Z,77300.25
2023-01-01T21:07:11.628Z,77316.63
2023-01-01T21:14:14.222Z,77322.75
2023-01-01T21:21:25.885Z,77322.75
2023-01-01T21:28:33.941Z,77310.47
2023-01-01T21:35:36.056Z,77318.66
2023-01-01T21:42:38.105Z,77322.75
2023-01-01T21:49:40.021Z,77335.00
2023-01-01T21:56:44.687Z,77355.47
2023-01-01T22:03:49.637Z,77369.75
2023-01-01T22:10:51.826Z,77386.13
2023-01-01T22:18:05.747Z,77396.34
2023-01-01T22:25:26.995Z,77398.38
2023-01-01T22:32:29.782Z,77388.16
2023-01-01T22:39:35.801Z,77398.38
2023-01-01T22:46:39.947Z,77392.25
2023-01-01T22:53:42.128Z,77404.50
2023-01-01T23:00:44.367Z,77404.50
2023-01-01T23:07:46.461Z,77406.56
2023-01-01T23:15:07.066Z,77400.44
2023-01-01T23:22:09.157Z,77394.28
2023-01-01T23:29:11.792Z,77386.13
2023-01-01T23:36:14.067Z,77400.44
2023-01-01T23:43:16.139Z,77408.59
2023-01-01T23:50:18.369Z,77412.69
2023-01-01T23:57:20.401Z,77416.78
